sensor_id;sensor_type;location;lat;lon;timestamp;P1;durP1;ratioP1;P2;durP2;ratioP2
11111;SDS011;5609;49.466;8.468;2022-12-16T00:00:00;17.35;;;12.35;;
11111;SDS011;5609;49.466;8.468;2022-12-16T00:02:28;19.30;;;12.77;;
11111;SDS011;5609;49.466;8.468;2022-12-16T00:04:55;17.80;;;13.05;;
11111;SDS011;5609;49.466;8.468;2022-12-16T00:07:23;16.30;;;11.98;;
11111;SDS011;5609;49.466;8.468;2022-12-16T00:09:50;18.23;;;12.98;;
11111;SDS011;5609;49.466;8.468;2022-12-16T00:12:17;16.45;;;12.25;;
11111;SDS011;5609;49.466;8.468;2022-12-16T00:14:45;18.00;;;12.43;;
11111;SDS011;5609;49.466;8.468;2022-12-16T00:17:13;17.83;;;12.50;;
11111;SDS011;5609;49.466;8.468;2022-12-16T00:19:40;16.88;;;12.25;;
11111;SDS011;5609;49.466;8.468;2022-12-16T00:22:07;16.08;;;11.93;;
11111;SDS011;5609;49.466;8.468;2022-12-16T00:24:34;16.45;;;12.07;;
11111;SDS011;5609;49.466;8.468;2022-12-16T00:27:01;17.20;;;12.13;;
11111;SDS011;5609;49.466;8.468;2022-12-16T00:29:28;16.65;;;12.23;;
11111;SDS011;5609;49.466;8.468;2022-12-16T00:31:55;16.42;;;12.02;;
11111;SDS011;5609;49.466;8.468;2022-12-16T00:34:25;16.80;;;11.50;;
11111;SDS011;5609;49.466;8.468;2022-12-16T00:36:52;16.80;;;12.20;;
11111;SDS011;5609;49.466;8.468;2022-12-16T00:39:19;15.88;;;11.40;;
11111;SDS011;5609;49.466;8.468;2022-12-16T00:41:47;16.60;;;11.90;;
11111;SDS011;5609;49.466;8.468;2022-12-16T00:44:14;17.00;;;11.77;;
11111;SDS011;5609;49.466;8.468;2022-12-16T00:46:42;16.33;;;11.63;;
11111;SDS011;5609;49.466;8.468;2022-12-16T00:49:09;16.88;;;11.70;;
11111;SDS011;5609;49.466;8.468;2022-12-16T00:51:38;17.05;;;11.70;;
11111;SDS011;5609;49.466;8.468;2022-12-16T00:54:08;17.08;;;11.23;;
11111;SDS011;5609;49.466;8.468;2022-12-16T00:56:35;15.45;;;11.07;;
11111;SDS011;5609;49.466;8.468;2022-12-16T00:59:02;17.65;;;11.98;;
11111;SDS011;5609;49.466;8.468;2022-12-16T01:01:29;16.92;;;12.50;;
11111;SDS011;5609;49.466;8.468;2022-12-16T01:03:56;16.40;;;11.50;;
11111;SDS011;5609;49.466;8.468;2022-12-16T01:06:23;16.05;;;11.20;;
11111;SDS011;5609;49.466;8.468;2022-12-16T01:08:51;15.80;;;11.32;;
11111;SDS011;5609;49.466;8.468;2022-12-16T01:11:18;16.45;;;11.32;;
11111;SDS011;5609;49.466;8.468;2022-12-16T01:13:45;14.80;;;11.05;;
11111;SDS011;5609;49.466;8.468;2022-12-16T01:16:15;16.60;;;10.88;;
11111;SDS011;5609;49.466;8.468;2022-12-16T01:18:42;16.00;;;11.32;;
11111;SDS011;5609;49.466;8.468;2022-12-16T01:21:09;15.77;;;11.15;;
11111;SDS011;5609;49.466;8.468;2022-12-16T01:23:38;14.90;;;10.85;;
11111;SDS011;5609;49.466;8.468;2022-12-16T01:26:06;15.82;;;11.20;;
11111;SDS011;5609;49.466;8.468;2022-12-16T01:28:35;15.52;;;11.10;;
11111;SDS011;5609;49.466;8.468;2022-12-16T01:31:02;15.15;;;10.68;;
11111;SDS011;5609;49.466;8.468;2022-12-16T01:33:29;14.38;;;10.40;;
11111;SDS011;5609;49.466;8.468;2022-12-16T01:35:58;15.40;;;11.05;;
11111;SDS011;5609;49.466;8.468;2022-12-16T01:38:26;16.58;;;10.82;;
11111;SDS011;5609;49.466;8.468;2022-12-16T01:40:53;16.85;;;11.85;;
11111;SDS011;5609;49.466;8.468;2022-12-16T01:43:22;14.90;;;10.55;;
11111;SDS011;5609;49.466;8.468;2022-12-16T01:45:51;16.63;;;11.50;;
11111;SDS011;5609;49.466;8.468;2022-12-16T01:48:24;17.30;;;10.80;;
11111;SDS011;5609;49.466;8.468;2022-12-16T01:51:00;14.50;;;10.50;;
11111;SDS011;5609;49.466;8.468;2022-12-16T01:53:30;15.95;;;10.95;;
11111;SDS011;5609;49.466;8.468;2022-12-16T01:55:57;17.00;;;11.85;;
11111;SDS011;5609;49.466;8.468;2022-12-16T01:58:28;16.40;;;11.35;;
11111;SDS011;5609;49.466;8.468;2022-12-16T02:00:56;15.95;;;11.25;;
11111;SDS011;5609;49.466;8.468;2022-12-16T02:03:23;14.85;;;10.52;;
11111;SDS011;5609;49.466;8.468;2022-12-16T02:05:51;15.15;;;10.75;;
11111;SDS011;5609;49.466;8.468;2022-12-16T02:08:19;15.05;;;10.27;;
11111;SDS011;5609;49.466;8.468;2022-12-16T02:10:51;15.65;;;10.63;;
11111;SDS011;5609;49.466;8.468;2022-12-16T02:13:25;13.70;;;9.48;;
11111;SDS011;5609;49.466;8.468;2022-12-16T02:15:58;15.63;;;10.23;;
11111;SDS011;5609;49.466;8.468;2022-12-16T02:18:30;15.65;;;10.90;;
11111;SDS011;5609;49.466;8.468;2022-12-16T02:21:17;15.52;;;10.90;;
11111;SDS011;5609;49.466;8.468;2022-12-16T02:26:54;15.68;;;10.90;;
11111;SDS011;5609;49.466;8.468;2022-12-16T02:29:42;14.65;;;10.55;;
11111;SDS011;5609;49.466;8.468;2022-12-16T02:32:18;14.93;;;10.73;;
11111;SDS011;5609;49.466;8.468;2022-12-16T02:34:48;15.93;;;11.02;;
11111;SDS011;5609;49.466;8.468;2022-12-16T02:37:17;16.27;;;11.32;;
11111;SDS011;5609;49.466;8.468;2022-12-16T02:39:47;15.27;;;10.57;;
11111;SDS011;5609;49.466;8.468;2022-12-16T02:42:20;14.98;;;11.02;;
11111;SDS011;5609;49.466;8.468;2022-12-16T02:44:56;16.98;;;10.90;;
11111;SDS011;5609;49.466;8.468;2022-12-16T02:47:28;15.40;;;10.57;;
11111;SDS011;5609;49.466;8.468;2022-12-16T02:49:55;16.38;;;10.88;;
11111;SDS011;5609;49.466;8.468;2022-12-16T02:52:23;14.45;;;10.38;;
11111;SDS011;5609;49.466;8.468;2022-12-16T02:54:53;18.08;;;11.10;;
11111;SDS011;5609;49.466;8.468;2022-12-16T02:57:38;15.68;;;10.48;;
11111;SDS011;5609;49.466;8.468;2022-12-16T03:00:24;15.15;;;10.23;;
11111;SDS011;5609;49.466;8.468;2022-12-16T03:02:57;14.40;;;10.25;;
11111;SDS011;5609;49.466;8.468;2022-12-16T03:05:28;16.80;;;10.85;;
11111;SDS011;5609;49.466;8.468;2022-12-16T03:07:58;14.25;;;10.38;;
11111;SDS011;5609;49.466;8.468;2022-12-16T03:10:28;17.63;;;11.65;;
11111;SDS011;5609;49.466;8.468;2022-12-16T03:12:59;16.20;;;10.30;;
11111;SDS011;5609;49.466;8.468;2022-12-16T03:15:28;15.43;;;10.70;;
11111;SDS011;5609;49.466;8.468;2022-12-16T03:18:00;14.77;;;10.32;;
11111;SDS011;5609;49.466;8.468;2022-12-16T03:20:29;15.50;;;10.55;;
11111;SDS011;5609;49.466;8.468;2022-12-16T03:23:00;15.85;;;10.52;;
11111;SDS011;5609;49.466;8.468;2022-12-16T03:25:47;15.63;;;10.23;;
11111;SDS011;5609;49.466;8.468;2022-12-16T03:28:22;16.98;;;10.50;;
11111;SDS011;5609;49.466;8.468;2022-12-16T03:30:59;14.98;;;10.57;;
11111;SDS011;5609;49.466;8.468;2022-12-16T03:33:34;15.10;;;10.65;;
11111;SDS011;5609;49.466;8.468;2022-12-16T03:36:08;16.55;;;10.68;;
11111;SDS011;5609;49.466;8.468;2022-12-16T03:38:39;16.40;;;10.73;;
11111;SDS011;5609;49.466;8.468;2022-12-16T03:41:08;15.32;;;10.90;;
11111;SDS011;5609;49.466;8.468;2022-12-16T03:43:36;16.33;;;10.82;;
11111;SDS011;5609;49.466;8.468;2022-12-16T03:46:04;13.73;;;10.18;;
11111;SDS011;5609;49.466;8.468;2022-12-16T03:48:34;14.82;;;10.38;;
11111;SDS011;5609;49.466;8.468;2022-12-16T03:51:01;14.50;;;9.88;;
11111;SDS011;5609;49.466;8.468;2022-12-16T03:53:28;16.67;;;10.63;;
11111;SDS011;5609;49.466;8.468;2022-12-16T03:55:55;15.65;;;10.63;;
11111;SDS011;5609;49.466;8.468;2022-12-16T03:58:21;14.63;;;10.68;;
11111;SDS011;5609;49.466;8.468;2022-12-16T04:00:48;15.13;;;9.88;;
11111;SDS011;5609;49.466;8.468;2022-12-16T04:03:15;16.02;;;10.13;;
11111;SDS011;5609;49.466;8.468;2022-12-16T04:05:44;16.20;;;11.40;;
11111;SDS011;5609;49.466;8.468;2022-12-16T04:08:11;15.75;;;10.80;;
11111;SDS011;5609;49.466;8.468;2022-12-16T04:10:37;17.02;;;11.10;;
11111;SDS011;5609;49.466;8.468;2022-12-16T04:13:21;14.77;;;10.07;;
11111;SDS011;5609;49.466;8.468;2022-12-16T04:16:06;16.10;;;11.10;;
11111;SDS011;5609;49.466;8.468;2022-12-16T04:18:51;16.58;;;10.60;;
11111;SDS011;5609;49.466;8.468;2022-12-16T04:21:37;15.52;;;10.55;;
11111;SDS011;5609;49.466;8.468;2022-12-16T04:24:22;15.13;;;10.45;;
11111;SDS011;5609;49.466;8.468;2022-12-16T04:26:52;17.25;;;11.35;;
11111;SDS011;5609;49.466;8.468;2022-12-16T04:29:36;14.57;;;10.07;;
11111;SDS011;5609;49.466;8.468;2022-12-16T04:32:23;15.23;;;10.07;;
11111;SDS011;5609;49.466;8.468;2022-12-16T04:34:50;15.77;;;10.52;;
11111;SDS011;5609;49.466;8.468;2022-12-16T04:37:18;14.60;;;10.18;;
11111;SDS011;5609;49.466;8.468;2022-12-16T04:40:02;12.57;;;9.35;;
11111;SDS011;5609;49.466;8.468;2022-12-16T04:42:47;15.13;;;9.85;;
11111;SDS011;5609;49.466;8.468;2022-12-16T04:45:31;14.82;;;9.88;;
11111;SDS011;5609;49.466;8.468;2022-12-16T04:48:16;14.32;;;9.35;;
11111;SDS011;5609;49.466;8.468;2022-12-16T04:51:00;13.50;;;9.77;;
11111;SDS011;5609;49.466;8.468;2022-12-16T04:53:45;14.52;;;10.38;;
11111;SDS011;5609;49.466;8.468;2022-12-16T04:56:29;13.30;;;9.30;;
11111;SDS011;5609;49.466;8.468;2022-12-16T04:59:13;12.98;;;9.23;;
11111;SDS011;5609;49.466;8.468;2022-12-16T05:01:58;14.27;;;9.50;;
11111;SDS011;5609;49.466;8.468;2022-12-16T05:04:42;16.10;;;9.70;;
11111;SDS011;5609;49.466;8.468;2022-12-16T05:07:28;13.18;;;8.98;;
11111;SDS011;5609;49.466;8.468;2022-12-16T05:10:14;13.15;;;9.82;;
11111;SDS011;5609;49.466;8.468;2022-12-16T05:12:58;13.40;;;9.82;;
11111;SDS011;5609;49.466;8.468;2022-12-16T05:15:45;14.43;;;10.18;;
11111;SDS011;5609;49.466;8.468;2022-12-16T05:18:29;13.18;;;9.35;;
11111;SDS011;5609;49.466;8.468;2022-12-16T05:21:13;12.95;;;9.80;;
11111;SDS011;5609;49.466;8.468;2022-12-16T05:23:57;12.60;;;9.57;;
11111;SDS011;5609;49.466;8.468;2022-12-16T05:26:43;15.05;;;10.20;;
11111;SDS011;5609;49.466;8.468;2022-12-16T05:29:28;15.52;;;10.15;;
11111;SDS011;5609;49.466;8.468;2022-12-16T05:32:12;15.73;;;9.65;;
11111;SDS011;5609;49.466;8.468;2022-12-16T05:34:56;14.15;;;9.93;;
11111;SDS011;5609;49.466;8.468;2022-12-16T05:37:40;14.05;;;9.93;;
11111;SDS011;5609;49.466;8.468;2022-12-16T05:40:24;13.60;;;9.80;;
11111;SDS011;5609;49.466;8.468;2022-12-16T05:43:09;12.27;;;9.02;;
11111;SDS011;5609;49.466;8.468;2022-12-16T05:45:53;14.15;;;9.85;;
11111;SDS011;5609;49.466;8.468;2022-12-16T05:48:38;13.73;;;9.98;;
11111;SDS011;5609;49.466;8.468;2022-12-16T05:51:22;14.63;;;10.32;;
11111;SDS011;5609;49.466;8.468;2022-12-16T05:54:06;14.98;;;10.00;;
11111;SDS011;5609;49.466;8.468;2022-12-16T05:56:50;14.90;;;10.35;;
11111;SDS011;5609;49.466;8.468;2022-12-16T05:59:36;14.63;;;10.00;;
11111;SDS011;5609;49.466;8.468;2022-12-16T06:02:19;13.68;;;9.30;;
11111;SDS011;5609;49.466;8.468;2022-12-16T06:05:04;13.82;;;9.80;;
11111;SDS011;5609;49.466;8.468;2022-12-16T06:07:49;12.10;;;9.45;;
11111;SDS011;5609;49.466;8.468;2022-12-16T06:10:34;13.38;;;9.52;;
11111;SDS011;5609;49.466;8.468;2022-12-16T06:13:19;14.48;;;10.18;;
11111;SDS011;5609;49.466;8.468;2022-12-16T06:16:05;13.10;;;9.60;;
11111;SDS011;5609;49.466;8.468;2022-12-16T06:18:50;14.20;;;9.35;;
11111;SDS011;5609;49.466;8.468;2022-12-16T06:21:37;14.75;;;10.23;;
11111;SDS011;5609;49.466;8.468;2022-12-16T06:27:08;14.77;;;9.95;;
11111;SDS011;5609;49.466;8.468;2022-12-16T06:29:52;13.32;;;9.68;;
11111;SDS011;5609;49.466;8.468;2022-12-16T06:32:38;14.43;;;9.98;;
11111;SDS011;5609;49.466;8.468;2022-12-16T06:35:22;14.48;;;9.60;;
11111;SDS011;5609;49.466;8.468;2022-12-16T06:38:06;14.00;;;9.90;;
11111;SDS011;5609;49.466;8.468;2022-12-16T06:40:50;13.55;;;9.55;;
11111;SDS011;5609;49.466;8.468;2022-12-16T06:43:34;16.33;;;10.38;;
11111;SDS011;5609;49.466;8.468;2022-12-16T06:46:19;14.27;;;9.70;;
11111;SDS011;5609;49.466;8.468;2022-12-16T06:49:07;12.60;;;9.00;;
11111;SDS011;5609;49.466;8.468;2022-12-16T06:51:51;15.35;;;9.30;;
11111;SDS011;5609;49.466;8.468;2022-12-16T06:54:35;14.57;;;9.20;;
11111;SDS011;5609;49.466;8.468;2022-12-16T06:57:16;13.25;;;8.95;;
11111;SDS011;5609;49.466;8.468;2022-12-16T07:00:00;13.07;;;9.20;;
11111;SDS011;5609;49.466;8.468;2022-12-16T07:02:45;13.13;;;8.57;;
11111;SDS011;5609;49.466;8.468;2022-12-16T07:05:31;13.98;;;9.02;;
11111;SDS011;5609;49.466;8.468;2022-12-16T07:08:15;12.57;;;8.45;;
11111;SDS011;5609;49.466;8.468;2022-12-16T07:10:59;14.85;;;9.82;;
11111;SDS011;5609;49.466;8.468;2022-12-16T07:13:44;14.27;;;8.93;;
11111;SDS011;5609;49.466;8.468;2022-12-16T07:16:28;13.90;;;9.30;;
11111;SDS011;5609;49.466;8.468;2022-12-16T07:19:12;15.18;;;9.30;;
11111;SDS011;5609;49.466;8.468;2022-12-16T07:21:58;13.77;;;9.82;;
11111;SDS011;5609;49.466;8.468;2022-12-16T07:24:42;14.10;;;9.18;;
11111;SDS011;5609;49.466;8.468;2022-12-16T07:27:26;13.93;;;9.40;;
11111;SDS011;5609;49.466;8.468;2022-12-16T07:30:11;12.85;;;9.23;;
11111;SDS011;5609;49.466;8.468;2022-12-16T07:32:55;13.07;;;9.18;;
11111;SDS011;5609;49.466;8.468;2022-12-16T07:35:41;13.10;;;9.18;;
11111;SDS011;5609;49.466;8.468;2022-12-16T07:38:26;11.65;;;8.35;;
11111;SDS011;5609;49.466;8.468;2022-12-16T07:41:11;11.88;;;9.00;;
11111;SDS011;5609;49.466;8.468;2022-12-16T07:43:55;13.05;;;8.85;;
11111;SDS011;5609;49.466;8.468;2022-12-16T07:46:39;13.93;;;9.20;;
11111;SDS011;5609;49.466;8.468;2022-12-16T07:49:23;12.82;;;8.80;;
11111;SDS011;5609;49.466;8.468;2022-12-16T07:52:08;13.85;;;9.02;;
11111;SDS011;5609;49.466;8.468;2022-12-16T07:54:53;14.10;;;9.07;;
11111;SDS011;5609;49.466;8.468;2022-12-16T07:57:49;13.25;;;8.82;;
11111;SDS011;5609;49.466;8.468;2022-12-16T08:00:34;12.48;;;8.77;;
11111;SDS011;5609;49.466;8.468;2022-12-16T08:03:18;13.65;;;9.50;;
11111;SDS011;5609;49.466;8.468;2022-12-16T08:06:03;13.98;;;9.35;;
11111;SDS011;5609;49.466;8.468;2022-12-16T08:08:47;14.15;;;9.82;;
11111;SDS011;5609;49.466;8.468;2022-12-16T08:11:34;14.52;;;9.32;;
11111;SDS011;5609;49.466;8.468;2022-12-16T08:14:18;13.93;;;9.18;;
11111;SDS011;5609;49.466;8.468;2022-12-16T08:17:03;13.38;;;9.07;;
11111;SDS011;5609;49.466;8.468;2022-12-16T08:19:48;12.27;;;8.55;;
11111;SDS011;5609;49.466;8.468;2022-12-16T08:22:32;12.55;;;9.05;;
11111;SDS011;5609;49.466;8.468;2022-12-16T08:25:17;12.05;;;8.52;;
11111;SDS011;5609;49.466;8.468;2022-12-16T08:28:08;12.35;;;8.98;;
11111;SDS011;5609;49.466;8.468;2022-12-16T08:30:53;14.00;;;9.38;;
11111;SDS011;5609;49.466;8.468;2022-12-16T08:33:38;12.75;;;8.68;;
11111;SDS011;5609;49.466;8.468;2022-12-16T08:36:23;14.10;;;9.50;;
11111;SDS011;5609;49.466;8.468;2022-12-16T08:39:07;12.82;;;9.43;;
11111;SDS011;5609;49.466;8.468;2022-12-16T08:41:52;11.50;;;8.80;;
11111;SDS011;5609;49.466;8.468;2022-12-16T08:44:38;12.43;;;8.63;;
11111;SDS011;5609;49.466;8.468;2022-12-16T08:47:23;11.38;;;8.65;;
11111;SDS011;5609;49.466;8.468;2022-12-16T08:50:08;12.10;;;8.45;;
11111;SDS011;5609;49.466;8.468;2022-12-16T08:52:52;11.30;;;8.57;;
11111;SDS011;5609;49.466;8.468;2022-12-16T08:55:37;12.25;;;8.23;;
11111;SDS011;5609;49.466;8.468;2022-12-16T08:58:22;12.85;;;8.32;;
11111;SDS011;5609;49.466;8.468;2022-12-16T09:01:19;12.80;;;8.82;;
11111;SDS011;5609;49.466;8.468;2022-12-16T09:04:00;11.75;;;8.77;;
11111;SDS011;5609;49.466;8.468;2022-12-16T09:06:45;11.73;;;8.18;;
11111;SDS011;5609;49.466;8.468;2022-12-16T09:09:30;12.23;;;8.57;;
11111;SDS011;5609;49.466;8.468;2022-12-16T09:12:14;15.20;;;8.90;;
11111;SDS011;5609;49.466;8.468;2022-12-16T09:14:59;10.88;;;8.23;;
11111;SDS011;5609;49.466;8.468;2022-12-16T09:17:51;12.68;;;8.48;;
11111;SDS011;5609;49.466;8.468;2022-12-16T09:20:36;11.38;;;8.52;;
11111;SDS011;5609;49.466;8.468;2022-12-16T09:23:20;12.07;;;8.82;;
11111;SDS011;5609;49.466;8.468;2022-12-16T09:26:04;12.40;;;8.75;;
11111;SDS011;5609;49.466;8.468;2022-12-16T09:28:49;12.57;;;8.93;;
11111;SDS011;5609;49.466;8.468;2022-12-16T09:31:33;15.10;;;9.82;;
11111;SDS011;5609;49.466;8.468;2022-12-16T09:34:19;13.05;;;9.02;;
11111;SDS011;5609;49.466;8.468;2022-12-16T09:37:03;12.82;;;8.43;;
11111;SDS011;5609;49.466;8.468;2022-12-16T09:39:47;11.57;;;8.98;;
11111;SDS011;5609;49.466;8.468;2022-12-16T09:42:34;12.18;;;8.57;;
11111;SDS011;5609;49.466;8.468;2022-12-16T09:45:31;11.35;;;8.52;;
11111;SDS011;5609;49.466;8.468;2022-12-16T09:48:23;11.98;;;8.13;;
11111;SDS011;5609;49.466;8.468;2022-12-16T09:51:15;11.48;;;8.40;;
11111;SDS011;5609;49.466;8.468;2022-12-16T09:54:00;11.88;;;8.43;;
11111;SDS011;5609;49.466;8.468;2022-12-16T09:56:45;12.18;;;8.27;;
11111;SDS011;5609;49.466;8.468;2022-12-16T09:59:31;11.77;;;8.60;;
11111;SDS011;5609;49.466;8.468;2022-12-16T10:02:19;10.93;;;7.88;;
11111;SDS011;5609;49.466;8.468;2022-12-16T10:05:05;10.35;;;8.18;;
11111;SDS011;5609;49.466;8.468;2022-12-16T10:07:56;10.55;;;8.35;;
11111;SDS011;5609;49.466;8.468;2022-12-16T10:10:48;11.75;;;8.95;;
11111;SDS011;5609;49.466;8.468;2022-12-16T10:13:39;10.73;;;8.07;;
11111;SDS011;5609;49.466;8.468;2022-12-16T10:16:30;10.83;;;8.10;;
11111;SDS011;5609;49.466;8.468;2022-12-16T10:19:23;10.57;;;8.23;;
11111;SDS011;5609;49.466;8.468;2022-12-16T10:22:17;12.25;;;8.18;;
11111;SDS011;5609;49.466;8.468;2022-12-16T10:25:07;11.68;;;8.38;;
11111;SDS011;5609;49.466;8.468;2022-12-16T10:27:59;9.32;;;7.70;;
11111;SDS011;5609;49.466;8.468;2022-12-16T10:30:52;10.32;;;8.25;;
11111;SDS011;5609;49.466;8.468;2022-12-16T10:33:37;9.85;;;8.20;;
11111;SDS011;5609;49.466;8.468;2022-12-16T10:36:22;12.67;;;8.80;;
11111;SDS011;5609;49.466;8.468;2022-12-16T10:39:12;11.57;;;8.60;;
11111;SDS011;5609;49.466;8.468;2022-12-16T10:42:03;12.30;;;8.50;;
11111;SDS011;5609;49.466;8.468;2022-12-16T10:44:58;10.33;;;8.17;;
11111;SDS011;5609;49.466;8.468;2022-12-16T10:47:45;11.10;;;8.00;;
11111;SDS011;5609;49.466;8.468;2022-12-16T10:50:29;10.40;;;8.00;;
11111;SDS011;5609;49.466;8.468;2022-12-16T10:53:14;11.50;;;8.63;;
11111;SDS011;5609;49.466;8.468;2022-12-16T10:56:01;11.33;;;8.27;;
11111;SDS011;5609;49.466;8.468;2022-12-16T10:58:58;11.60;;;8.57;;
11111;SDS011;5609;49.466;8.468;2022-12-16T11:01:55;12.47;;;9.03;;
11111;SDS011;5609;49.466;8.468;2022-12-16T11:04:39;10.07;;;8.27;;
11111;SDS011;5609;49.466;8.468;2022-12-16T11:07:25;12.90;;;8.67;;
11111;SDS011;5609;49.466;8.468;2022-12-16T11:10:26;12.43;;;9.37;;
11111;SDS011;5609;49.466;8.468;2022-12-16T11:13:15;11.53;;;8.97;;
11111;SDS011;5609;49.466;8.468;2022-12-16T11:16:06;10.93;;;8.77;;
11111;SDS011;5609;49.466;8.468;2022-12-16T11:19:02;11.40;;;9.23;;
11111;SDS011;5609;49.466;8.468;2022-12-16T11:21:47;13.47;;;8.80;;
11111;SDS011;5609;49.466;8.468;2022-12-16T11:24:32;9.80;;;8.63;;
11111;SDS011;5609;49.466;8.468;2022-12-16T11:27:21;9.53;;;8.27;;
11111;SDS011;5609;49.466;8.468;2022-12-16T11:30:17;12.40;;;9.10;;
11111;SDS011;5609;49.466;8.468;2022-12-16T11:33:09;10.80;;;8.50;;
11111;SDS011;5609;49.466;8.468;2022-12-16T11:36:04;11.23;;;8.57;;
11111;SDS011;5609;49.466;8.468;2022-12-16T11:38:50;11.60;;;8.90;;
11111;SDS011;5609;49.466;8.468;2022-12-16T11:41:37;11.37;;;8.57;;
11111;SDS011;5609;49.466;8.468;2022-12-16T11:44:25;11.77;;;8.83;;
11111;SDS011;5609;49.466;8.468;2022-12-16T11:47:14;11.90;;;8.67;;
11111;SDS011;5609;49.466;8.468;2022-12-16T11:50:00;11.53;;;8.63;;
11111;SDS011;5609;49.466;8.468;2022-12-16T11:52:47;11.93;;;9.03;;
11111;SDS011;5609;49.466;8.468;2022-12-16T11:55:35;13.43;;;9.17;;
11111;SDS011;5609;49.466;8.468;2022-12-16T11:58:23;10.47;;;8.27;;
11111;SDS011;5609;49.466;8.468;2022-12-16T12:01:10;9.53;;;7.93;;
11111;SDS011;5609;49.466;8.468;2022-12-16T12:03:57;10.90;;;8.57;;
11111;SDS011;5609;49.466;8.468;2022-12-16T12:06:54;10.20;;;8.60;;
11111;SDS011;5609;49.466;8.468;2022-12-16T12:09:42;11.50;;;8.90;;
11111;SDS011;5609;49.466;8.468;2022-12-16T12:12:31;10.43;;;8.47;;
11111;SDS011;5609;49.466;8.468;2022-12-16T12:15:22;11.47;;;9.03;;
11111;SDS011;5609;49.466;8.468;2022-12-16T12:18:13;10.57;;;8.67;;
11111;SDS011;5609;49.466;8.468;2022-12-16T12:21:01;11.23;;;9.07;;
11111;SDS011;5609;49.466;8.468;2022-12-16T12:23:52;11.40;;;8.97;;
11111;SDS011;5609;49.466;8.468;2022-12-16T12:26:41;10.67;;;8.50;;
11111;SDS011;5609;49.466;8.468;2022-12-16T12:29:29;10.40;;;8.57;;
11111;SDS011;5609;49.466;8.468;2022-12-16T12:32:18;12.50;;;9.20;;
11111;SDS011;5609;49.466;8.468;2022-12-16T12:35:08;10.93;;;8.93;;
11111;SDS011;5609;49.466;8.468;2022-12-16T12:37:57;10.93;;;9.10;;
11111;SDS011;5609;49.466;8.468;2022-12-16T12:40:47;11.67;;;8.67;;
11111;SDS011;5609;49.466;8.468;2022-12-16T12:43:37;9.87;;;8.27;;
11111;SDS011;5609;49.466;8.468;2022-12-16T12:46:24;12.90;;;9.00;;
11111;SDS011;5609;49.466;8.468;2022-12-16T12:49:14;11.77;;;9.23;;
11111;SDS011;5609;49.466;8.468;2022-12-16T12:52:01;11.13;;;8.70;;
11111;SDS011;5609;49.466;8.468;2022-12-16T12:54:49;11.13;;;8.90;;
11111;SDS011;5609;49.466;8.468;2022-12-16T12:57:37;12.13;;;9.13;;
11111;SDS011;5609;49.466;8.468;2022-12-16T13:00:38;11.70;;;9.40;;
11111;SDS011;5609;49.466;8.468;2022-12-16T13:03:27;11.23;;;9.43;;
11111;SDS011;5609;49.466;8.468;2022-12-16T13:06:13;11.53;;;8.60;;
11111;SDS011;5609;49.466;8.468;2022-12-16T13:08:59;10.93;;;8.67;;
11111;SDS011;5609;49.466;8.468;2022-12-16T13:14:53;10.03;;;8.10;;
11111;SDS011;5609;49.466;8.468;2022-12-16T13:20:42;11.03;;;8.87;;
11111;SDS011;5609;49.466;8.468;2022-12-16T13:23:27;12.80;;;9.37;;
11111;SDS011;5609;49.466;8.468;2022-12-16T13:26:14;12.37;;;8.90;;
11111;SDS011;5609;49.466;8.468;2022-12-16T13:29:02;10.57;;;8.80;;
11111;SDS011;5609;49.466;8.468;2022-12-16T13:31:59;9.97;;;8.70;;
11111;SDS011;5609;49.466;8.468;2022-12-16T13:34:45;10.67;;;8.27;;
11111;SDS011;5609;49.466;8.468;2022-12-16T13:37:30;10.13;;;8.83;;
11111;SDS011;5609;49.466;8.468;2022-12-16T13:40:15;9.73;;;8.40;;
11111;SDS011;5609;49.466;8.468;2022-12-16T13:43:00;10.43;;;8.93;;
11111;SDS011;5609;49.466;8.468;2022-12-16T13:48:46;9.90;;;8.33;;
11111;SDS011;5609;49.466;8.468;2022-12-16T13:51:55;9.20;;;8.00;;
11111;SDS011;5609;49.466;8.468;2022-12-16T13:54:40;9.50;;;8.50;;
11111;SDS011;5609;49.466;8.468;2022-12-16T13:57:28;10.47;;;8.83;;
11111;SDS011;5609;49.466;8.468;2022-12-16T14:00:15;10.77;;;8.27;;
11111;SDS011;5609;49.466;8.468;2022-12-16T14:03:00;11.30;;;8.63;;
11111;SDS011;5609;49.466;8.468;2022-12-16T14:05:48;10.33;;;8.53;;
11111;SDS011;5609;49.466;8.468;2022-12-16T14:08:35;11.50;;;8.90;;
11111;SDS011;5609;49.466;8.468;2022-12-16T14:11:22;11.77;;;8.70;;
11111;SDS011;5609;49.466;8.468;2022-12-16T14:14:13;13.27;;;8.77;;
11111;SDS011;5609;49.466;8.468;2022-12-16T14:17:00;9.47;;;8.20;;
11111;SDS011;5609;49.466;8.468;2022-12-16T14:19:49;11.57;;;8.70;;
11111;SDS011;5609;49.466;8.468;2022-12-16T14:22:44;10.37;;;8.57;;
11111;SDS011;5609;49.466;8.468;2022-12-16T14:25:31;11.57;;;8.73;;
11111;SDS011;5609;49.466;8.468;2022-12-16T14:28:18;9.47;;;8.23;;
11111;SDS011;5609;49.466;8.468;2022-12-16T14:31:05;9.43;;;8.30;;
11111;SDS011;5609;49.466;8.468;2022-12-16T14:33:53;14.77;;;8.90;;
11111;SDS011;5609;49.466;8.468;2022-12-16T14:36:38;10.37;;;8.27;;
11111;SDS011;5609;49.466;8.468;2022-12-16T14:39:27;11.33;;;9.00;;
11111;SDS011;5609;49.466;8.468;2022-12-16T14:42:17;9.23;;;8.23;;
11111;SDS011;5609;49.466;8.468;2022-12-16T14:45:03;9.97;;;8.13;;
11111;SDS011;5609;49.466;8.468;2022-12-16T14:47:48;10.93;;;8.07;;
11111;SDS011;5609;49.466;8.468;2022-12-16T14:50:32;11.27;;;8.63;;
11111;SDS011;5609;49.466;8.468;2022-12-16T14:53:15;9.90;;;8.13;;
11111;SDS011;5609;49.466;8.468;2022-12-16T14:59:13;10.60;;;8.87;;
11111;SDS011;5609;49.466;8.468;2022-12-16T15:01:59;10.53;;;8.53;;
11111;SDS011;5609;49.466;8.468;2022-12-16T15:04:48;10.37;;;8.23;;
11111;SDS011;5609;49.466;8.468;2022-12-16T15:07:33;11.07;;;8.97;;
11111;SDS011;5609;49.466;8.468;2022-12-16T15:10:21;11.53;;;8.77;;
11111;SDS011;5609;49.466;8.468;2022-12-16T15:13:09;10.57;;;8.50;;
11111;SDS011;5609;49.466;8.468;2022-12-16T15:16:11;10.83;;;9.00;;
11111;SDS011;5609;49.466;8.468;2022-12-16T15:18:58;10.40;;;8.77;;
11111;SDS011;5609;49.466;8.468;2022-12-16T15:21:44;10.73;;;8.47;;
11111;SDS011;5609;49.466;8.468;2022-12-16T15:24:30;11.33;;;8.53;;
11111;SDS011;5609;49.466;8.468;2022-12-16T15:27:23;15.07;;;11.13;;
11111;SDS011;5609;49.466;8.468;2022-12-16T15:33:15;11.00;;;8.83;;
11111;SDS011;5609;49.466;8.468;2022-12-16T15:36:00;10.53;;;8.23;;
11111;SDS011;5609;49.466;8.468;2022-12-16T15:38:46;11.50;;;9.00;;
11111;SDS011;5609;49.466;8.468;2022-12-16T15:41:31;10.87;;;9.03;;
11111;SDS011;5609;49.466;8.468;2022-12-16T15:44:16;11.33;;;9.33;;
11111;SDS011;5609;49.466;8.468;2022-12-16T15:47:01;10.53;;;8.77;;
11111;SDS011;5609;49.466;8.468;2022-12-16T15:49:44;10.57;;;8.57;;
11111;SDS011;5609;49.466;8.468;2022-12-16T15:52:32;11.50;;;8.70;;
11111;SDS011;5609;49.466;8.468;2022-12-16T15:55:21;13.43;;;9.20;;
11111;SDS011;5609;49.466;8.468;2022-12-16T15:58:10;13.23;;;9.27;;
11111;SDS011;5609;49.466;8.468;2022-12-16T16:00:56;11.10;;;9.33;;
11111;SDS011;5609;49.466;8.468;2022-12-16T16:03:43;13.43;;;9.80;;
11111;SDS011;5609;49.466;8.468;2022-12-16T16:06:33;12.77;;;9.93;;
11111;SDS011;5609;49.466;8.468;2022-12-16T16:09:19;12.70;;;9.80;;
11111;SDS011;5609;49.466;8.468;2022-12-16T16:12:04;14.10;;;10.20;;
11111;SDS011;5609;49.466;8.468;2022-12-16T16:14:49;15.93;;;9.93;;
11111;SDS011;5609;49.466;8.468;2022-12-16T16:17:49;13.40;;;10.00;;
11111;SDS011;5609;49.466;8.468;2022-12-16T16:20:36;11.97;;;9.40;;
11111;SDS011;5609;49.466;8.468;2022-12-16T16:23:22;13.00;;;9.70;;
11111;SDS011;5609;49.466;8.468;2022-12-16T16:26:07;13.50;;;10.80;;
11111;SDS011;5609;49.466;8.468;2022-12-16T16:28:52;15.83;;;10.90;;
11111;SDS011;5609;49.466;8.468;2022-12-16T16:31:37;13.60;;;10.93;;